Time;durP1;ratioP1;P1;durP2;ratioP2;P2;SDS_P1;SDS_P2;PMS_P1;PMS_P2;Temp;Humidity;BMP_temperature;BMP_pressure;BME280_temperature;BME280_humidity;BME280_pressure;Samples;Min_cycle;Max_cycle;Signal;HPM_P1;HPM_P2
2023/01/22 00:00:25;;;;;;;11.18;6.50;;;;;;;;;;8234177;28;20045;-74
2023/01/22 00:04:25;;;;;;;9.18;6.13;;;;;;;;;;8233233;28;20022;-74
2023/01/22 00:08:26;;;;;;;10.10;6.35;;;;;;;;;;8252496;28;20112;-74
2023/01/22 00:12:26;;;;;;;12.52;7.13;;;;;;;;;;8230993;28;20041;-74
2023/01/22 00:16:26;;;;;;;10.50;6.95;;;;;;;;;;8235918;28;20050;-74
2023/01/22 00:20:26;;;;;;;10.68;7.20;;;;;;;;;;8251757;28;20037;-74
2023/01/22 00:24:26;;;;;;;13.45;7.47;;;;;;;;;;8252543;28;20142;-74
2023/01/22 00:28:27;;;;;;;12.57;7.45;;;;;;;;;;8252189;28;20848;-75
2023/01/22 00:32:27;;;;;;;13.00;6.90;;;;;;;;;;8251924;28;20097;-74
2023/01/22 00:36:27;;;;;;;11.00;7.22;;;;;;;;;;8252331;28;20034;-74
2023/01/22 00:40:27;;;;;;;13.80;7.60;;;;;;;;;;8251629;28;20140;-74
2023/01/22 00:44:27;;;;;;;14.18;7.95;;;;;;;;;;8250739;28;20879;-74
2023/01/22 00:48:27;;;;;;;12.80;8.18;;;;;;;;;;8230657;28;20103;-74
2023/01/22 00:52:28;;;;;;;12.77;7.60;;;;;;;;;;8252035;28;20022;-74
2023/01/22 00:56:28;;;;;;;12.45;8.00;;;;;;;;;;8233012;28;20676;-74
2023/01/22 01:00:28;;;;;;;8.85;6.22;;;;;;;;;;8249677;28;20030;-74
2023/01/22 01:04:28;;;;;;;11.10;6.80;;;;;;;;;;8251512;28;20041;-74
2023/01/22 01:08:30;;;;;;;12.43;7.70;;;;;;;;;;8251281;28;20032;-74
2023/01/22 01:12:30;;;;;;;11.30;7.30;;;;;;;;;;8251213;28;20273;-74
2023/01/22 01:16:31;;;;;;;11.98;7.60;;;;;;;;;;8238527;28;21019;-74
2023/01/22 01:20:31;;;;;;;12.35;7.43;;;;;;;;;;8249286;28;20038;-74
2023/01/22 01:24:31;;;;;;;11.95;7.28;;;;;;;;;;8251937;28;20028;-74
2023/01/22 01:28:33;;;;;;;12.98;8.20;;;;;;;;;;8249399;28;20665;-75
2023/01/22 01:32:33;;;;;;;12.20;7.75;;;;;;;;;;8245459;28;20149;-74
2023/01/22 01:36:33;;;;;;;13.38;8.32;;;;;;;;;;8247070;28;20392;-74
2023/01/22 01:40:34;;;;;;;14.17;8.37;;;;;;;;;;8236951;28;20416;-74
2023/01/22 01:44:35;;;;;;;11.85;7.32;;;;;;;;;;8252297;28;20327;-74
2023/01/22 01:48:35;;;;;;;10.77;6.80;;;;;;;;;;8229037;28;20038;-74
2023/01/22 01:52:36;;;;;;;13.15;7.30;;;;;;;;;;8251046;28;20037;-74
2023/01/22 01:56:40;;;;;;;11.18;6.57;;;;;;;;;;8251746;28;20833;-74
2023/01/22 02:00:42;;;;;;;12.40;6.88;;;;;;;;;;8250394;28;20030;-75
2023/01/22 02:04:42;;;;;;;11.70;6.72;;;;;;;;;;8251155;28;20130;-75
2023/01/22 02:08:44;;;;;;;11.57;6.65;;;;;;;;;;8250195;28;20102;-75
2023/01/22 02:12:44;;;;;;;9.18;6.85;;;;;;;;;;8250139;28;20037;-75
2023/01/22 02:16:44;;;;;;;9.57;6.72;;;;;;;;;;8232079;28;20145;-75
2023/01/22 02:21:11;;;;;;;11.35;6.90;;;;;;;;;;8250753;28;20144;-75
2023/01/22 02:25:11;;;;;;;12.55;7.43;;;;;;;;;;8248591;28;20041;-75
2023/01/22 02:29:12;;;;;;;14.93;7.40;;;;;;;;;;8251791;28;20072;-75
2023/01/22 02:33:13;;;;;;;11.13;7.47;;;;;;;;;;8255539;28;20634;-75
2023/01/22 02:37:13;;;;;;;10.07;6.88;;;;;;;;;;8255897;28;20140;-75
2023/01/22 02:41:14;;;;;;;10.23;6.85;;;;;;;;;;8255225;28;20050;-75
2023/01/22 02:45:14;;;;;;;13.00;7.80;;;;;;;;;;8242962;28;20080;-75
2023/01/22 02:49:14;;;;;;;8.18;6.00;;;;;;;;;;8254947;28;20022;-75
2023/01/22 02:53:15;;;;;;;11.23;6.88;;;;;;;;;;8243687;28;20299;-74
2023/01/22 02:57:15;;;;;;;10.03;6.63;;;;;;;;;;8255293;28;20025;-74
2023/01/22 03:01:19;;;;;;;10.15;6.38;;;;;;;;;;8225857;28;20265;-75
2023/01/22 03:05:19;;;;;;;;;;;;;;;;;;8243461;28;20036;-75
2023/01/22 03:09:19;;;;;;;9.32;5.72;;;;;;;;;;8254998;28;19914;-75
2023/01/22 03:21:57;;;;;;;10.20;6.28;;;;;;;;;;8256132;28;20037;-74
2023/01/22 03:25:57;;;;;;;8.95;5.60;;;;;;;;;;8256384;28;20026;-75
2023/01/22 03:29:58;;;;;;;7.97;5.85;;;;;;;;;;8253039;28;20022;-76
2023/01/22 03:33:58;;;;;;;8.93;6.05;;;;;;;;;;8254263;28;20045;-76
2023/01/22 03:37:58;;;;;;;8.95;5.80;;;;;;;;;;8236596;28;21054;-75
2023/01/22 03:41:58;;;;;;;8.80;6.05;;;;;;;;;;8253759;28;20820;-74
2023/01/22 03:46:00;;;;;;;9.85;6.22;;;;;;;;;;8236664;28;20140;-74
2023/01/22 03:50:02;;;;;;;7.80;5.72;;;;;;;;;;8254486;28;20769;-74
2023/01/22 03:54:02;;;;;;;9.55;5.97;;;;;;;;;;8254406;28;20068;-75
2023/01/22 03:58:02;;;;;;;9.18;5.88;;;;;;;;;;8255127;28;20145;-75
2023/01/22 04:02:03;;;;;;;8.50;6.20;;;;;;;;;;8253089;28;21040;-75
2023/01/22 04:06:04;;;;;;;7.55;5.50;;;;;;;;;;8255216;28;20129;-74
2023/01/22 04:10:04;;;;;;;8.65;6.03;;;;;;;;;;8254208;28;20057;-75
2023/01/22 04:14:05;;;;;;;8.30;5.85;;;;;;;;;;8251406;28;20037;-75
2023/01/22 04:18:05;;;;;;;8.02;5.13;;;;;;;;;;8253458;28;20038;-75
2023/01/22 04:22:05;;;;;;;8.98;5.97;;;;;;;;;;8251644;28;20030;-75
2023/01/22 04:26:05;;;;;;;8.20;5.40;;;;;;;;;;8253175;28;20145;-76
2023/01/22 04:30:06;;;;;;;8.10;5.68;;;;;;;;;;8253141;28;20026;-75
2023/01/22 04:34:07;;;;;;;7.68;5.65;;;;;;;;;;8253607;28;20426;-74
2023/01/22 04:38:08;;;;;;;8.30;5.32;;;;;;;;;;8252954;28;20041;-75
2023/01/22 04:42:09;;;;;;;7.70;4.97;;;;;;;;;;8240329;28;20068;-75
2023/01/22 04:46:09;;;;;;;8.52;5.35;;;;;;;;;;8250867;28;20034;-74
2023/01/22 04:50:16;;;;;;;7.35;4.93;;;;;;;;;;8250513;28;20718;-76
2023/01/22 04:54:17;;;;;;;6.93;5.07;;;;;;;;;;8253657;28;20026;-74
2023/01/22 04:58:17;;;;;;;6.97;4.82;;;;;;;;;;8250571;28;20068;-75
2023/01/22 05:02:17;;;;;;;6.57;4.88;;;;;;;;;;8233522;28;20041;-75
2023/01/22 05:06:17;;;;;;;7.75;5.40;;;;;;;;;;8253695;28;20037;-74
2023/01/22 05:10:17;;;;;;;7.60;4.85;;;;;;;;;;8251203;28;20117;-75
2023/01/22 05:14:18;;;;;;;9.80;5.50;;;;;;;;;;8252235;28;20030;-75
2023/01/22 05:18:18;;;;;;;5.93;4.53;;;;;;;;;;8250796;28;20289;-75
2023/01/22 05:22:18;;;;;;;6.30;4.55;;;;;;;;;;8252655;28;20782;-75
2023/01/22 05:26:18;;;;;;;6.93;4.78;;;;;;;;;;8252749;28;20038;-75
2023/01/22 05:30:19;;;;;;;6.28;4.72;;;;;;;;;;8239284;28;20133;-75
2023/01/22 05:34:19;;;;;;;6.57;4.53;;;;;;;;;;8232633;28;20050;-75
2023/01/22 05:38:20;;;;;;;7.03;4.03;;;;;;;;;;8252295;28;20620;-75
2023/01/22 05:42:20;;;;;;;5.88;4.40;;;;;;;;;;8232861;28;20065;-76
2023/01/22 05:46:20;;;;;;;5.35;4.22;;;;;;;;;;8234730;28;20715;-75
2023/01/22 05:50:21;;;;;;;7.05;4.40;;;;;;;;;;8251041;28;20037;-75
2023/01/22 05:54:21;;;;;;;5.40;4.10;;;;;;;;;;8250441;28;20029;-75
2023/01/22 05:58:21;;;;;;;5.65;4.20;;;;;;;;;;8251455;28;20528;-74
2023/01/22 06:02:21;;;;;;;5.20;4.10;;;;;;;;;;8251191;28;20542;-75
2023/01/22 06:06:21;;;;;;;6.18;4.15;;;;;;;;;;8237127;28;20845;-75
2023/01/22 06:10:22;;;;;;;7.07;4.80;;;;;;;;;;8257670;28;20026;-74
2023/01/22 06:14:22;;;;;;;5.30;3.85;;;;;;;;;;8257445;28;20169;-74
2023/01/22 06:18:23;;;;;;;5.05;4.03;;;;;;;;;;8254314;28;20045;-74
2023/01/22 06:22:23;;;;;;;4.95;3.95;;;;;;;;;;8252957;28;20030;-74
2023/01/22 06:26:23;;;;;;;4.45;3.72;;;;;;;;;;8255296;28;20184;-73
2023/01/22 06:30:23;;;;;;;4.40;3.83;;;;;;;;;;8253826;28;21097;-74
2023/01/22 06:34:23;;;;;;;4.43;3.60;;;;;;;;;;8236629;28;20125;-75
2023/01/22 06:38:24;;;;;;;5.10;3.58;;;;;;;;;;8254686;28;20727;-74
2023/01/22 06:42:24;;;;;;;4.88;3.60;;;;;;;;;;8254026;28;20034;-73
2023/01/22 06:46:24;;;;;;;5.40;3.80;;;;;;;;;;8254368;28;20061;-73
2023/01/22 06:50:24;;;;;;;3.58;3.17;;;;;;;;;;8234267;28;20944;-74
2023/01/22 06:54:24;;;;;;;3.77;3.27;;;;;;;;;;8238967;28;20026;-74
2023/01/22 06:58:24;;;;;;;4.43;3.65;;;;;;;;;;8251192;28;20331;-74
2023/01/22 07:02:26;;;;;;;3.72;3.00;;;;;;;;;;8254737;28;20092;-75
2023/01/22 07:06:26;;;;;;;4.97;3.78;;;;;;;;;;8253641;28;20053;-74
2023/01/22 07:10:26;;;;;;;3.45;3.10;;;;;;;;;;8241594;28;20164;-76
2023/01/22 07:14:26;;;;;;;4.88;3.15;;;;;;;;;;8253891;28;20025;-76
2023/01/22 07:18:27;;;;;;;3.30;2.90;;;;;;;;;;8253401;28;20049;-76
2023/01/22 07:22:27;;;;;;;3.50;3.00;;;;;;;;;;8233459;28;20018;-75
2023/01/22 07:26:27;;;;;;;3.30;3.00;;;;;;;;;;8243691;28;20014;-76
2023/01/22 07:30:27;;;;;;;4.43;3.30;;;;;;;;;;8240077;28;20580;-75
2023/01/22 07:34:28;;;;;;;4.40;3.30;;;;;;;;;;8252402;28;20029;-76
2023/01/22 07:38:28;;;;;;;3.35;2.45;;;;;;;;;;8251990;28;20026;-76
2023/01/22 07:42:28;;;;;;;3.15;2.85;;;;;;;;;;8233800;28;20154;-76
2023/01/22 07:46:28;;;;;;;2.78;2.58;;;;;;;;;;8233228;28;20026;-76
2023/01/22 07:50:30;;;;;;;4.00;3.00;;;;;;;;;;8231215;28;20291;-76
2023/01/22 07:54:35;;;;;;;4.15;3.00;;;;;;;;;;8252574;28;20029;-76
2023/01/22 07:58:35;;;;;;;3.30;2.90;;;;;;;;;;8232881;28;20029;-77
2023/01/22 08:02:35;;;;;;;2.90;2.60;;;;;;;;;;8251341;28;20042;-76
2023/01/22 08:06:36;;;;;;;3.47;2.97;;;;;;;;;;8250037;28;20280;-76
2023/01/22 08:10:37;;;;;;;3.13;2.83;;;;;;;;;;8250989;28;20022;-76
2023/01/22 08:14:37;;;;;;;3.75;3.15;;;;;;;;;;8251018;28;20037;-76
2023/01/22 08:18:37;;;;;;;3.55;3.00;;;;;;;;;;8248736;28;20030;-76
2023/01/22 08:22:37;;;;;;;2.92;2.60;;;;;;;;;;8248270;28;20686;-76
2023/01/22 08:26:38;;;;;;;3.03;2.75;;;;;;;;;;8247561;28;20121;-76
2023/01/22 08:30:38;;;;;;;3.38;2.85;;;;;;;;;;8249371;28;20046;-76
2023/01/22 08:34:39;;;;;;;5.80;3.17;;;;;;;;;;8230524;28;20025;-76
2023/01/22 08:38:39;;;;;;;4.32;3.13;;;;;;;;;;8248928;28;20041;-76
2023/01/22 08:42:40;;;;;;;2.80;2.58;;;;;;;;;;8249055;28;20021;-76
2023/01/22 08:46:40;;;;;;;3.22;2.92;;;;;;;;;;8248749;28;20048;-76
2023/01/22 08:50:40;;;;;;;3.85;2.70;;;;;;;;;;8247609;28;20104;-76
2023/01/22 08:54:40;;;;;;;3.13;2.45;;;;;;;;;;8233761;28;20099;-76
2023/01/22 08:58:40;;;;;;;4.20;3.20;;;;;;;;;;8238529;28;20028;-76
2023/01/22 09:02:41;;;;;;;3.65;2.88;;;;;;;;;;8250012;28;20055;-76
2023/01/22 09:06:41;;;;;;;3.28;2.90;;;;;;;;;;8252201;28;20871;-76
2023/01/22 09:10:41;;;;;;;3.53;3.00;;;;;;;;;;8232570;28;20037;-76
2023/01/22 09:14:41;;;;;;;2.95;2.70;;;;;;;;;;8250118;28;20037;-75
2023/01/22 09:18:42;;;;;;;3.33;2.70;;;;;;;;;;8247845;28;20041;-76
2023/01/22 09:22:45;;;;;;;2.90;2.70;;;;;;;;;;8249396;28;20094;-76
2023/01/22 09:26:45;;;;;;;2.90;2.60;;;;;;;;;;8250677;28;20363;-76
2023/01/22 09:30:45;;;;;;;2.95;2.63;;;;;;;;;;8248134;28;20034;-76
2023/01/22 09:34:46;;;;;;;5.17;2.87;;;;;;;;;;8245758;28;20022;-76
2023/01/22 09:38:46;;;;;;;5.93;2.63;;;;;;;;;;8233524;28;20350;-76
2023/01/22 09:42:46;;;;;;;3.00;2.70;;;;;;;;;;8250581;28;20026;-77
2023/01/22 09:46:55;;;;;;;2.60;2.40;;;;;;;;;;8251598;28;20049;-76
2023/01/22 09:50:55;;;;;;;3.30;2.65;;;;;;;;;;8252109;28;20803;-76
2023/01/22 09:54:55;;;;;;;3.03;2.72;;;;;;;;;;8254021;28;20173;-76
2023/01/22 09:58:56;;;;;;;2.72;2.50;;;;;;;;;;8250928;28;20079;-78
2023/01/22 10:03:22;;;;;;;3.10;2.80;;;;;;;;;;8252442;28;20088;-76
2023/01/22 10:07:25;;;;;;;3.85;2.70;;;;;;;;;;8208375;28;20041;-76
2023/01/22 10:11:25;;;;;;;3.03;2.60;;;;;;;;;;8254669;28;20802;-75
2023/01/22 10:15:26;;;;;;;2.80;2.47;;;;;;;;;;8250139;28;20049;-76
2023/01/22 10:19:28;;;;;;;3.67;2.70;;;;;;;;;;8236602;28;20033;-77
2023/01/22 10:23:29;;;;;;;2.67;2.47;;;;;;;;;;8254254;28;20283;-77
2023/01/22 10:27:35;;;;;;;2.83;2.50;;;;;;;;;;8250642;28;20100;-75
2023/01/22 10:31:37;;;;;;;2.90;2.67;;;;;;;;;;8251159;28;20153;-76
2023/01/22 10:35:41;;;;;;;3.08;2.78;;;;;;;;;;8250243;28;20573;-76
2023/01/22 10:39:42;;;;;;;2.42;2.22;;;;;;;;;;8252037;28;20029;-75
2023/01/22 10:43:43;;;;;;;3.15;2.50;;;;;;;;;;8251863;28;20030;-75
2023/01/22 10:47:43;;;;;;;3.28;2.30;;;;;;;;;;8250607;28;20037;-76
2023/01/22 10:51:47;;;;;;;4.93;2.35;;;;;;;;;;8249912;28;20132;-75
2023/01/22 10:55:48;;;;;;;;;;;;;;;;;;8253456;28;20025;-75
2023/01/22 10:59:52;;;;;;;2.50;2.10;;;;;;;;;;8250898;28;20000;-75
2023/01/22 11:03:52;;;;;;;;;;;;;;;;;;8249300;28;20045;-74
2023/01/22 11:07:56;;;;;;;3.35;2.50;;;;;;;;;;8249990;28;20562;-75
2023/01/22 11:11:59;;;;;;;2.45;2.25;;;;;;;;;;8251354;28;21207;-74
2023/01/22 11:16:11;;;;;;;3.15;2.70;;;;;;;;;;8250616;28;20038;-76
2023/01/22 11:20:20;;;;;;;2.70;2.50;;;;;;;;;;8251338;28;20029;-75
2023/01/22 11:24:26;;;;;;;3.75;2.65;;;;;;;;;;8252759;28;20046;-76
2023/01/22 11:28:32;;;;;;;3.30;3.00;;;;;;;;;;8253788;28;20659;-75
2023/01/22 11:32:56;;;;;;;2.75;2.53;;;;;;;;;;8253137;28;20581;-75
2023/01/22 11:37:02;;;;;;;2.95;2.70;;;;;;;;;;8254264;28;20030;-75
2023/01/22 11:41:08;;;;;;;3.97;2.95;;;;;;;;;;8241189;28;20821;-75
2023/01/22 11:45:08;;;;;;;3.47;2.90;;;;;;;;;;8253031;28;20173;-76
2023/01/22 11:49:08;;;;;;;3.25;2.90;;;;;;;;;;8236635;28;20030;-75
2023/01/22 11:53:27;;;;;;;4.85;3.20;;;;;;;;;;8254738;28;20696;-75
2023/01/22 11:57:31;;;;;;;3.08;2.50;;;;;;;;;;8253550;28;20034;-75
2023/01/22 12:01:42;;;;;;;4.40;3.00;;;;;;;;;;8251768;28;20041;-75
2023/01/22 12:05:52;;;;;;;4.57;2.70;;;;;;;;;;8254086;28;20026;-75
2023/01/22 12:10:11;;;;;;;2.63;2.42;;;;;;;;;;8233507;28;20033;-75
2023/01/22 12:14:23;;;;;;;4.35;2.80;;;;;;;;;;8235093;28;20026;-75
2023/01/22 12:18:37;;;;;;;3.17;2.55;;;;;;;;;;8237363;28;20030;-75
2023/01/22 12:22:37;;;;;;;3.17;2.87;;;;;;;;;;8253372;28;20031;-76
2023/01/22 12:26:44;;;;;;;11.68;3.13;;;;;;;;;;8254306;28;20387;-75
2023/01/22 12:30:50;;;;;;;2.70;2.50;;;;;;;;;;8252135;28;20768;-75
2023/01/22 12:34:54;;;;;;;2.63;2.40;;;;;;;;;;8252817;28;20034;-75
2023/01/22 12:39:14;;;;;;;3.22;2.92;;;;;;;;;;8225992;28;20135;-75
2023/01/22 12:43:17;;;;;;;3.00;2.70;;;;;;;;;;8251610;28;20033;-75
2023/01/22 12:47:27;;;;;;;2.73;2.53;;;;;;;;;;8237718;28;20494;-75
2023/01/22 12:51:34;;;;;;;4.15;3.00;;;;;;;;;;8231699;28;20041;-75
2023/01/22 12:55:36;;;;;;;4.90;3.55;;;;;;;;;;8253543;28;20021;-74
2023/01/22 12:59:37;;;;;;;3.42;3.13;;;;;;;;;;8253554;28;20681;-75
2023/01/22 13:03:38;;;;;;;3.63;3.28;;;;;;;;;;8248780;28;20100;-75
2023/01/22 13:07:39;;;;;;;3.85;2.85;;;;;;;;;;8252977;28;20030;-75
2023/01/22 13:11:40;;;;;;;3.55;3.10;;;;;;;;;;8233752;28;20087;-75
2023/01/22 13:15:40;;;;;;;3.13;2.85;;;;;;;;;;8240182;28;20497;-75
2023/01/22 13:19:43;;;;;;;3.17;2.88;;;;;;;;;;8237576;28;20032;-75
2023/01/22 13:23:45;;;;;;;3.13;2.83;;;;;;;;;;8252673;28;20022;-75
2023/01/22 13:27:47;;;;;;;3.53;3.00;;;;;;;;;;8251017;28;20581;-75
2023/01/22 13:31:51;;;;;;;3.15;2.83;;;;;;;;;;8251252;28;20029;-75
2023/01/22 13:35:51;;;;;;;4.43;3.40;;;;;;;;;;8252444;28;20018;-75
2023/01/22 13:39:51;;;;;;;3.88;3.47;;;;;;;;;;8252066;28;20065;-75
2023/01/22 13:43:51;;;;;;;3.25;2.95;;;;;;;;;;8251638;28;20215;-75
2023/01/22 13:47:52;;;;;;;3.05;2.75;;;;;;;;;;8250031;28;20034;-75
2023/01/22 13:51:54;;;;;;;3.58;3.25;;;;;;;;;;8251977;28;20034;-75
2023/01/22 13:55:54;;;;;;;2.53;2.33;;;;;;;;;;8252975;28;20018;-75
2023/01/22 13:59:58;;;;;;;3.65;3.20;;;;;;;;;;8250185;28;20036;-75
2023/01/22 14:04:00;;;;;;;4.65;3.17;;;;;;;;;;8251526;28;20133;-75
2023/01/22 14:08:05;;;;;;;4.35;3.25;;;;;;;;;;8247044;28;20566;-74
2023/01/22 14:12:12;;;;;;;3.75;3.17;;;;;;;;;;8250749;28;20084;-75
2023/01/22 14:16:13;;;;;;;2.72;2.53;;;;;;;;;;8234352;28;20358;-75
2023/01/22 14:20:13;;;;;;;3.75;3.20;;;;;;;;;;8250080;28;20045;-75
2023/01/22 14:24:13;;;;;;;3.90;2.90;;;;;;;;;;8251870;28;20030;-75
2023/01/22 14:28:14;;;;;;;4.20;2.63;;;;;;;;;;8245048;28;20505;-74
2023/01/22 14:32:14;;;;;;;3.38;3.08;;;;;;;;;;8257046;28;20042;-75
2023/01/22 14:36:14;;;;;;;2.70;2.50;;;;;;;;;;8239655;28;20026;-75
2023/01/22 14:40:15;;;;;;;4.18;3.40;;;;;;;;;;8256514;28;20048;-75
2023/01/22 14:44:15;;;;;;;2.60;2.40;;;;;;;;;;8255811;28;20030;-75
2023/01/22 14:48:17;;;;;;;3.08;2.78;;;;;;;;;;8254915;28;20524;-75
2023/01/22 14:52:17;;;;;;;3.03;2.72;;;;;;;;;;8256457;28;20037;-74
2023/01/22 14:56:17;;;;;;;3.17;2.95;;;;;;;;;;8256855;28;20891;-75
2023/01/22 15:00:18;;;;;;;5.53;3.17;;;;;;;;;;8256309;28;20152;-75
2023/01/22 15:04:18;;;;;;;3.00;2.80;;;;;;;;;;8254229;28;20036;-75
2023/01/22 15:08:18;;;;;;;3.67;3.03;;;;;;;;;;8242925;28;21040;-75
2023/01/22 15:12:18;;;;;;;3.45;3.15;;;;;;;;;;8255553;28;20084;-74
2023/01/22 15:16:18;;;;;;;3.78;3.47;;;;;;;;;;8238167;28;20044;-75
2023/01/22 15:20:19;;;;;;;3.30;3.00;;;;;;;;;;8255273;28;21961;-74
2023/01/22 15:24:19;;;;;;;4.28;3.45;;;;;;;;;;8237249;28;20030;-75
2023/01/22 15:28:20;;;;;;;3.55;3.13;;;;;;;;;;8255040;28;20479;-75
2023/01/22 15:32:20;;;;;;;5.45;3.58;;;;;;;;;;8255887;28;20070;-75
2023/01/22 15:36:20;;;;;;;3.45;3.15;;;;;;;;;;8252953;28;20033;-75
2023/01/22 15:40:20;;;;;;;5.00;3.42;;;;;;;;;;8253095;28;20033;-75
2023/01/22 15:44:20;;;;;;;3.78;3.25;;;;;;;;;;8254874;28;20030;-75
2023/01/22 15:48:20;;;;;;;3.40;3.08;;;;;;;;;;8251788;28;20139;-75
2023/01/22 15:52:21;;;;;;;3.53;3.22;;;;;;;;;;8253280;28;20044;-74
2023/01/22 15:56:22;;;;;;;3.77;3.33;;;;;;;;;;8253289;28;20092;-74
2023/01/22 16:00:22;;;;;;;3.88;3.17;;;;;;;;;;8251873;28;20242;-75
2023/01/22 16:04:22;;;;;;;3.70;3.40;;;;;;;;;;8253687;28;20060;-75
2023/01/22 16:08:22;;;;;;;3.95;3.55;;;;;;;;;;8240583;28;20024;-75
2023/01/22 16:12:23;;;;;;;3.65;3.30;;;;;;;;;;8253054;28;20026;-75
2023/01/22 16:16:24;;;;;;;3.47;3.17;;;;;;;;;;8252223;28;20866;-75
2023/01/22 16:20:24;;;;;;;3.63;3.33;;;;;;;;;;8241734;28;20104;-75
2023/01/22 16:24:24;;;;;;;3.55;3.25;;;;;;;;;;8254251;28;20021;-74
2023/01/22 16:28:24;;;;;;;4.15;3.72;;;;;;;;;;8239251;28;20104;-74
2023/01/22 16:32:25;;;;;;;4.32;3.75;;;;;;;;;;8252521;28;20046;-75
2023/01/22 16:36:26;;;;;;;4.60;3.75;;;;;;;;;;8253892;28;20030;-75
2023/01/22 16:40:26;;;;;;;4.82;3.90;;;;;;;;;;8253074;28;20026;-74
2023/01/22 16:44:26;;;;;;;4.22;3.53;;;;;;;;;;8252992;28;20030;-75
2023/01/22 16:48:26;;;;;;;4.45;3.70;;;;;;;;;;8250563;28;20029;-75
2023/01/22 16:52:27;;;;;;;3.83;3.53;;;;;;;;;;8244384;28;20091;-75
2023/01/22 16:56:27;;;;;;;3.93;3.53;;;;;;;;;;8251693;28;20122;-73
2023/01/22 17:00:27;;;;;;;4.20;3.80;;;;;;;;;;8250837;28;20269;-74
2023/01/22 17:04:27;;;;;;;4.22;3.70;;;;;;;;;;8251496;28;20493;-73
2023/01/22 17:08:28;;;;;;;4.05;3.65;;;;;;;;;;8251445;28;20780;-73
2023/01/22 17:12:28;;;;;;;5.25;4.18;;;;;;;;;;8234044;28;20018;-74
2023/01/22 17:16:28;;;;;;;4.32;3.80;;;;;;;;;;8239892;28;20041;-73
2023/01/22 17:20:28;;;;;;;5.30;4.30;;;;;;;;;;8250204;28;20652;-73
2023/01/22 17:24:29;;;;;;;10.10;4.20;;;;;;;;;;8252741;28;20108;-73
2023/01/22 17:28:29;;;;;;;5.18;4.30;;;;;;;;;;8249995;28;20036;-74
2023/01/22 17:32:29;;;;;;;4.70;4.07;;;;;;;;;;8252037;28;20078;-73
2023/01/22 17:36:30;;;;;;;4.80;4.10;;;;;;;;;;8251152;28;20061;-74
2023/01/22 17:40:30;;;;;;;4.65;4.25;;;;;;;;;;8251820;28;20032;-73
2023/01/22 17:44:30;;;;;;;5.68;4.30;;;;;;;;;;8250841;28;20030;-73
2023/01/22 17:48:31;;;;;;;4.70;4.20;;;;;;;;;;8251290;28;20048;-73
2023/01/22 17:52:32;;;;;;;4.57;4.18;;;;;;;;;;8250754;28;22088;-73
2023/01/22 17:56:34;;;;;;;4.50;4.05;;;;;;;;;;8248150;28;20363;-74
2023/01/22 18:00:36;;;;;;;4.40;3.80;;;;;;;;;;8247892;28;20124;-73
2023/01/22 18:04:36;;;;;;;5.45;4.43;;;;;;;;;;8256368;28;20430;-73
2023/01/22 18:08:38;;;;;;;4.90;4.40;;;;;;;;;;8255319;28;20076;-73
2023/01/22 18:12:38;;;;;;;4.32;3.92;;;;;;;;;;8237103;28;20022;-73
2023/01/22 18:16:39;;;;;;;5.15;4.38;;;;;;;;;;8250484;28;20796;-74
2023/01/22 18:20:46;;;;;;;4.97;4.55;;;;;;;;;;8233172;28;20034;-73
2023/01/22 18:24:46;;;;;;;5.72;4.90;;;;;;;;;;8251870;28;20076;-74
2023/01/22 18:28:47;;;;;;;4.65;4.13;;;;;;;;;;8232238;28;20703;-73
2023/01/22 18:32:47;;;;;;;4.88;4.38;;;;;;;;;;8250102;28;20148;-74
2023/01/22 18:36:47;;;;;;;4.72;4.32;;;;;;;;;;8250508;28;20720;-73
2023/01/22 18:40:47;;;;;;;4.70;4.07;;;;;;;;;;8252278;28;20069;-72
2023/01/22 18:44:47;;;;;;;5.35;4.70;;;;;;;;;;8252053;28;20439;-73
2023/01/22 18:48:51;;;;;;;5.40;4.38;;;;;;;;;;8250995;28;20029;-73
2023/01/22 18:52:51;;;;;;;4.77;4.30;;;;;;;;;;8253229;28;20037;-73
2023/01/22 18:56:51;;;;;;;4.63;4.20;;;;;;;;;;8252758;28;20290;-73
2023/01/22 19:00:52;;;;;;;6.25;4.88;;;;;;;;;;8250702;28;20108;-74
2023/01/22 19:04:53;;;;;;;4.55;4.10;;;;;;;;;;8235470;28;20026;-74
2023/01/22 19:08:54;;;;;;;5.07;4.32;;;;;;;;;;8252016;28;20022;-76
2023/01/22 19:12:55;;;;;;;5.15;4.20;;;;;;;;;;8249600;28;20029;-74
2023/01/22 19:16:55;;;;;;;5.15;4.30;;;;;;;;;;8249663;28;20511;-74
2023/01/22 19:21:00;;;;;;;4.80;4.10;;;;;;;;;;8252748;28;20103;-74
2023/01/22 19:25:01;;;;;;;4.47;4.07;;;;;;;;;;8250792;28;20383;-74
2023/01/22 19:29:03;;;;;;;4.80;4.30;;;;;;;;;;8250992;28;20041;-74
2023/01/22 19:33:03;;;;;;;5.63;4.70;;;;;;;;;;8232200;28;20046;-74
2023/01/22 19:37:05;;;;;;;4.80;4.10;;;;;;;;;;8251368;28;20091;-74
2023/01/22 19:41:05;;;;;;;4.93;4.38;;;;;;;;;;8251196;28;20024;-73
2023/01/22 19:45:06;;;;;;;4.68;4.28;;;;;;;;;;8246887;28;20673;-73
2023/01/22 19:49:06;;;;;;;4.80;4.10;;;;;;;;;;8248564;28;20026;-74
2023/01/22 19:53:07;;;;;;;5.07;4.00;;;;;;;;;;8246469;28;20867;-74
2023/01/22 19:57:07;;;;;;;5.65;4.53;;;;;;;;;;8233097;28;20053;-74
2023/01/22 20:01:08;;;;;;;5.57;4.60;;;;;;;;;;8250150;28;20140;-74
2023/01/22 20:05:08;;;;;;;7.60;4.47;;;;;;;;;;8246987;28;20033;-74
2023/01/22 20:09:10;;;;;;;4.88;4.35;;;;;;;;;;8249930;28;20025;-74
2023/01/22 20:13:10;;;;;;;5.10;4.30;;;;;;;;;;8248277;28;20026;-74
2023/01/22 20:17:12;;;;;;;5.25;4.68;;;;;;;;;;8251090;28;20034;-74
2023/01/22 20:21:13;;;;;;;5.18;4.28;;;;;;;;;;8252261;28;20026;-74
2023/01/22 20:25:14;;;;;;;4.50;4.05;;;;;;;;;;8239269;28;20029;-74
2023/01/22 20:29:14;;;;;;;5.35;4.28;;;;;;;;;;8249573;28;20026;-74
2023/01/22 20:33:15;;;;;;;4.78;4.13;;;;;;;;;;8235995;28;20040;-74
2023/01/22 20:37:15;;;;;;;7.37;4.60;;;;;;;;;;8250897;28;20032;-74
2023/01/22 20:41:16;;;;;;;4.70;4.20;;;;;;;;;;8252040;28;20276;-74
2023/01/22 20:45:17;;;;;;;4.13;3.72;;;;;;;;;;8250090;28;20140;-74
2023/01/22 20:49:17;;;;;;;4.65;4.05;;;;;;;;;;8248482;28;20069;-74
2023/01/22 20:53:18;;;;;;;5.90;4.68;;;;;;;;;;8250089;28;20045;-74
2023/01/22 20:57:19;;;;;;;4.47;3.95;;;;;;;;;;8227749;28;20030;-74
2023/01/22 21:01:19;;;;;;;5.28;4.35;;;;;;;;;;8248591;28;20046;-74
2023/01/22 21:05:19;;;;;;;5.40;4.35;;;;;;;;;;8237513;28;20037;-74
2023/01/22 21:09:19;;;;;;;5.70;4.55;;;;;;;;;;8246827;28;20025;-74
2023/01/22 21:13:22;;;;;;;4.55;4.10;;;;;;;;;;8248960;28;20036;-74
2023/01/22 21:17:22;;;;;;;5.47;4.30;;;;;;;;;;8248685;28;20273;-75
2023/01/22 21:21:22;;;;;;;6.00;4.22;;;;;;;;;;8251471;28;20033;-74
2023/01/22 21:25:23;;;;;;;4.40;4.00;;;;;;;;;;8251396;28;20140;-74
2023/01/22 21:29:23;;;;;;;4.38;3.97;;;;;;;;;;8232558;28;20022;-74
2023/01/22 21:33:23;;;;;;;6.55;4.20;;;;;;;;;;8250670;28;20038;-74
2023/01/22 21:37:23;;;;;;;4.97;4.18;;;;;;;;;;8240416;28;21168;-75
2023/01/22 21:41:24;;;;;;;5.55;4.40;;;;;;;;;;8258170;28;20033;-74
2023/01/22 21:49:45;;;;;;;6.82;4.80;;;;;;;;;;8258014;28;20064;-75
2023/01/22 21:53:45;;;;;;;7.15;4.47;;;;;;;;;;8245511;28;20072;-75
2023/01/22 21:57:46;;;;;;;4.93;4.40;;;;;;;;;;8258063;28;20018;-75
2023/01/22 22:01:46;;;;;;;5.97;4.43;;;;;;;;;;8256269;28;20045;-75
2023/01/22 22:05:56;;;;;;;5.10;4.33;;;;;;;;;;8258099;28;20247;-75
2023/01/22 22:09:56;;;;;;;8.95;4.85;;;;;;;;;;8244051;28;20645;-74
2023/01/22 22:13:56;;;;;;;5.13;4.30;;;;;;;;;;8257413;28;20036;-75
2023/01/22 22:17:56;;;;;;;5.88;4.85;;;;;;;;;;8255250;28;20716;-75
2023/01/22 22:21:57;;;;;;;5.53;4.38;;;;;;;;;;8256418;28;20136;-75
2023/01/22 22:25:57;;;;;;;5.93;4.47;;;;;;;;;;8256707;28;20037;-75
2023/01/22 22:29:57;;;;;;;5.53;4.45;;;;;;;;;;8256809;28;20040;-74
2023/01/22 22:33:58;;;;;;;5.78;4.53;;;;;;;;;;8238131;28;20038;-75
2023/01/22 22:37:58;;;;;;;5.60;4.97;;;;;;;;;;8256337;28;20029;-75
2023/01/22 22:41:58;;;;;;;5.28;4.07;;;;;;;;;;8257687;28;20366;-74
2023/01/22 22:46:02;;;;;;;5.78;4.05;;;;;;;;;;8236378;28;20442;-75
2023/01/22 22:50:03;;;;;;;5.57;4.28;;;;;;;;;;8255264;28;20828;-75
2023/01/22 22:54:05;;;;;;;5.30;4.10;;;;;;;;;;8255670;28;20785;-74
2023/01/22 22:58:05;;;;;;;5.82;4.60;;;;;;;;;;8255328;28;20030;-75
2023/01/22 23:02:05;;;;;;;6.13;4.35;;;;;;;;;;8256085;28;20697;-75
2023/01/22 23:06:07;;;;;;;6.13;4.53;;;;;;;;;;8255883;28;20079;-75
2023/01/22 23:10:27;;;;;;;5.05;4.15;;;;;;;;;;8255816;28;20257;-74
2023/01/22 23:14:27;;;;;;;5.03;4.53;;;;;;;;;;8255693;28;20022;-75
2023/01/22 23:18:28;;;;;;;6.15;4.72;;;;;;;;;;8237005;28;20065;-75
2023/01/22 23:22:28;;;;;;;6.03;4.80;;;;;;;;;;8253442;28;20517;-75
2023/01/22 23:26:28;;;;;;;6.25;4.70;;;;;;;;;;8254538;28;21064;-75
2023/01/22 23:30:28;;;;;;;5.05;4.38;;;;;;;;;;8253844;28;20044;-75
2023/01/22 23:34:29;;;;;;;6.22;4.80;;;;;;;;;;8255780;28;20022;-75
2023/01/22 23:38:29;;;;;;;5.65;4.45;;;;;;;;;;8253217;28;20327;-75
2023/01/22 23:42:29;;;;;;;5.53;4.75;;;;;;;;;;8252674;28;20103;-75
2023/01/22 23:46:29;;;;;;;5.07;4.03;;;;;;;;;;8241143;28;20850;-75
2023/01/22 23:50:30;;;;;;;4.90;4.40;;;;;;;;;;8238687;28;20116;-75
2023/01/22 23:54:30;;;;;;;6.65;5.28;;;;;;;;;;8254632;28;20033;-74
2023/01/22 23:58:30;;;;;;;6.70;5.30;;;;;;;;;;8234350;28;20103;-75
